sensor_id;sensor_type;location;lat;lon;timestamp;P1;durP1;ratioP1;P2;durP2;ratioP2
16770;SDS011;8503;52.472;13.344;2022-10-29T00:01:17;12.82;;;4.13;;
16770;SDS011;8503;52.472;13.344;2022-10-29T00:02:40;10.88;;;4.25;;
16770;SDS011;8503;52.472;13.344;2022-10-29T00:04:03;8.00;;;3.95;;
16770;SDS011;8503;52.472;13.344;2022-10-29T00:05:26;14.40;;;4.07;;
16770;SDS011;8503;52.472;13.344;2022-10-29T00:06:50;16.48;;;4.85;;
16770;SDS011;8503;52.472;13.344;2022-10-29T00:08:14;15.10;;;3.65;;
16770;SDS011;8503;52.472;13.344;2022-10-29T00:09:36;15.43;;;4.45;;
16770;SDS011;8503;52.472;13.344;2022-10-29T00:11:05;13.85;;;4.57;;
16770;SDS011;8503;52.472;13.344;2022-10-29T00:12:29;9.18;;;4.50;;
16770;SDS011;8503;52.472;13.344;2022-10-29T00:13:53;11.15;;;4.25;;
16770;SDS011;8503;52.472;13.344;2022-10-29T00:15:17;8.65;;;4.55;;
16770;SDS011;8503;52.472;13.344;2022-10-29T00:16:41;10.77;;;3.95;;
16770;SDS011;8503;52.472;13.344;2022-10-29T00:18:04;13.15;;;4.13;;
16770;SDS011;8503;52.472;13.344;2022-10-29T00:19:26;10.73;;;5.22;;
16770;SDS011;8503;52.472;13.344;2022-10-29T00:20:58;11.35;;;4.18;;
16770;SDS011;8503;52.472;13.344;2022-10-29T00:22:23;10.05;;;3.78;;
16770;SDS011;8503;52.472;13.344;2022-10-29T00:23:47;9.45;;;3.78;;
16770;SDS011;8503;52.472;13.344;2022-10-29T00:25:11;11.52;;;3.67;;
16770;SDS011;8503;52.472;13.344;2022-10-29T00:26:33;12.35;;;4.57;;
16770;SDS011;8503;52.472;13.344;2022-10-29T00:27:56;6.25;;;3.20;;
16770;SDS011;8503;52.472;13.344;2022-10-29T00:29:19;10.70;;;3.95;;
16770;SDS011;8503;52.472;13.344;2022-10-29T00:30:42;11.95;;;4.53;;
16770;SDS011;8503;52.472;13.344;2022-10-29T00:32:05;11.05;;;3.78;;
16770;SDS011;8503;52.472;13.344;2022-10-29T00:33:30;19.25;;;4.70;;
16770;SDS011;8503;52.472;13.344;2022-10-29T00:34:53;8.98;;;3.92;;
16770;SDS011;8503;52.472;13.344;2022-10-29T00:36:17;9.43;;;4.35;;
16770;SDS011;8503;52.472;13.344;2022-10-29T00:37:43;11.80;;;4.00;;
16770;SDS011;8503;52.472;13.344;2022-10-29T00:39:07;15.70;;;3.92;;
16770;SDS011;8503;52.472;13.344;2022-10-29T00:40:35;10.20;;;3.83;;
16770;SDS011;8503;52.472;13.344;2022-10-29T00:41:58;11.57;;;4.20;;
16770;SDS011;8503;52.472;13.344;2022-10-29T00:43:21;14.32;;;4.18;;
16770;SDS011;8503;52.472;13.344;2022-10-29T00:44:44;9.65;;;3.95;;
16770;SDS011;8503;52.472;13.344;2022-10-29T00:46:09;12.90;;;4.10;;
16770;SDS011;8503;52.472;13.344;2022-10-29T00:47:34;9.63;;;3.92;;
16770;SDS011;8503;52.472;13.344;2022-10-29T00:48:58;10.43;;;4.28;;
16770;SDS011;8503;52.472;13.344;2022-10-29T00:50:21;9.85;;;3.70;;
16770;SDS011;8503;52.472;13.344;2022-10-29T00:51:46;14.25;;;4.38;;
16770;SDS011;8503;52.472;13.344;2022-10-29T00:53:10;7.65;;;4.00;;
16770;SDS011;8503;52.472;13.344;2022-10-29T00:54:33;13.85;;;4.35;;
16770;SDS011;8503;52.472;13.344;2022-10-29T00:55:59;15.75;;;3.70;;
16770;SDS011;8503;52.472;13.344;2022-10-29T00:57:23;14.45;;;4.40;;
16770;SDS011;8503;52.472;13.344;2022-10-29T00:58:48;11.40;;;3.70;;
16770;SDS011;8503;52.472;13.344;2022-10-29T01:00:12;9.93;;;3.83;;
16770;SDS011;8503;52.472;13.344;2022-10-29T01:01:34;8.82;;;3.65;;
16770;SDS011;8503;52.472;13.344;2022-10-29T01:02:58;13.45;;;4.28;;
16770;SDS011;8503;52.472;13.344;2022-10-29T01:04:22;11.63;;;3.78;;
16770;SDS011;8503;52.472;13.344;2022-10-29T01:05:45;9.05;;;3.67;;
16770;SDS011;8503;52.472;13.344;2022-10-29T01:07:09;9.45;;;3.63;;
16770;SDS011;8503;52.472;13.344;2022-10-29T01:08:33;14.82;;;4.00;;
16770;SDS011;8503;52.472;13.344;2022-10-29T01:09:56;11.43;;;4.18;;
16770;SDS011;8503;52.472;13.344;2022-10-29T01:11:21;15.10;;;3.92;;
16770;SDS011;8503;52.472;13.344;2022-10-29T01:14:41;14.73;;;3.92;;
16770;SDS011;8503;52.472;13.344;2022-10-29T01:16:10;11.38;;;3.78;;
16770;SDS011;8503;52.472;13.344;2022-10-29T01:17:51;9.50;;;3.70;;
16770;SDS011;8503;52.472;13.344;2022-10-29T01:19:25;11.02;;;3.58;;
16770;SDS011;8503;52.472;13.344;2022-10-29T01:21:07;18.23;;;3.78;;
16770;SDS011;8503;52.472;13.344;2022-10-29T01:22:58;14.32;;;3.50;;
16770;SDS011;8503;52.472;13.344;2022-10-29T01:26:51;10.40;;;3.03;;
16770;SDS011;8503;52.472;13.344;2022-10-29T01:28:40;11.88;;;3.80;;
16770;SDS011;8503;52.472;13.344;2022-10-29T01:30:18;6.85;;;3.53;;
16770;SDS011;8503;52.472;13.344;2022-10-29T01:31:46;10.77;;;3.72;;
16770;SDS011;8503;52.472;13.344;2022-10-29T01:33:13;12.88;;;4.00;;
16770;SDS011;8503;52.472;13.344;2022-10-29T01:34:39;13.10;;;4.30;;
16770;SDS011;8503;52.472;13.344;2022-10-29T01:36:05;8.93;;;3.67;;
16770;SDS011;8503;52.472;13.344;2022-10-29T01:37:35;6.97;;;3.42;;
16770;SDS011;8503;52.472;13.344;2022-10-29T01:39:04;18.23;;;4.38;;
16770;SDS011;8503;52.472;13.344;2022-10-29T01:40:31;10.43;;;4.25;;
16770;SDS011;8503;52.472;13.344;2022-10-29T01:41:59;7.38;;;3.60;;
16770;SDS011;8503;52.472;13.344;2022-10-29T01:43:27;14.73;;;5.53;;
16770;SDS011;8503;52.472;13.344;2022-10-29T01:44:55;11.75;;;4.25;;
16770;SDS011;8503;52.472;13.344;2022-10-29T01:46:22;9.05;;;3.75;;
16770;SDS011;8503;52.472;13.344;2022-10-29T01:47:50;16.83;;;4.13;;
16770;SDS011;8503;52.472;13.344;2022-10-29T01:49:18;8.25;;;3.33;;
16770;SDS011;8503;52.472;13.344;2022-10-29T01:50:44;9.77;;;4.05;;
16770;SDS011;8503;52.472;13.344;2022-10-29T01:52:10;11.25;;;3.90;;
16770;SDS011;8503;52.472;13.344;2022-10-29T01:53:35;14.43;;;4.32;;
16770;SDS011;8503;52.472;13.344;2022-10-29T01:54:59;16.40;;;3.95;;
16770;SDS011;8503;52.472;13.344;2022-10-29T01:56:26;10.25;;;4.35;;
16770;SDS011;8503;52.472;13.344;2022-10-29T01:57:50;18.95;;;4.22;;
16770;SDS011;8503;52.472;13.344;2022-10-29T01:59:14;8.25;;;4.15;;
16770;SDS011;8503;52.472;13.344;2022-10-29T02:00:57;13.48;;;4.38;;
16770;SDS011;8503;52.472;13.344;2022-10-29T02:02:28;12.75;;;4.00;;
16770;SDS011;8503;52.472;13.344;2022-10-29T02:03:58;9.05;;;3.85;;
16770;SDS011;8503;52.472;13.344;2022-10-29T02:05:29;14.07;;;4.45;;
16770;SDS011;8503;52.472;13.344;2022-10-29T02:06:55;12.00;;;4.18;;
16770;SDS011;8503;52.472;13.344;2022-10-29T02:08:24;14.15;;;3.92;;
16770;SDS011;8503;52.472;13.344;2022-10-29T02:09:51;12.00;;;4.03;;
16770;SDS011;8503;52.472;13.344;2022-10-29T02:11:20;16.85;;;3.83;;
16770;SDS011;8503;52.472;13.344;2022-10-29T02:12:45;17.77;;;4.60;;
16770;SDS011;8503;52.472;13.344;2022-10-29T02:14:11;21.65;;;4.28;;
16770;SDS011;8503;52.472;13.344;2022-10-29T02:15:38;14.00;;;4.72;;
16770;SDS011;8503;52.472;13.344;2022-10-29T02:17:05;9.02;;;3.63;;
16770;SDS011;8503;52.472;13.344;2022-10-29T02:18:28;8.55;;;3.65;;
16770;SDS011;8503;52.472;13.344;2022-10-29T02:19:52;16.67;;;4.63;;
16770;SDS011;8503;52.472;13.344;2022-10-29T02:21:15;9.77;;;3.75;;
16770;SDS011;8503;52.472;13.344;2022-10-29T02:22:40;12.30;;;4.20;;
16770;SDS011;8503;52.472;13.344;2022-10-29T02:24:03;12.77;;;3.85;;
16770;SDS011;8503;52.472;13.344;2022-10-29T02:25:26;11.13;;;4.03;;
16770;SDS011;8503;52.472;13.344;2022-10-29T02:26:50;13.18;;;4.25;;
16770;SDS011;8503;52.472;13.344;2022-10-29T02:28:13;11.35;;;4.35;;
16770;SDS011;8503;52.472;13.344;2022-10-29T02:29:36;10.23;;;3.95;;
16770;SDS011;8503;52.472;13.344;2022-10-29T02:30:58;13.48;;;4.22;;
16770;SDS011;8503;52.472;13.344;2022-10-29T02:32:22;9.90;;;4.53;;
16770;SDS011;8503;52.472;13.344;2022-10-29T02:33:44;14.55;;;4.38;;
16770;SDS011;8503;52.472;13.344;2022-10-29T02:35:09;10.00;;;4.70;;
16770;SDS011;8503;52.472;13.344;2022-10-29T02:36:32;12.13;;;4.70;;
16770;SDS011;8503;52.472;13.344;2022-10-29T02:37:55;18.00;;;4.70;;
16770;SDS011;8503;52.472;13.344;2022-10-29T02:39:18;11.75;;;3.90;;
16770;SDS011;8503;52.472;13.344;2022-10-29T02:40:41;14.65;;;4.60;;
16770;SDS011;8503;52.472;13.344;2022-10-29T02:42:04;10.85;;;4.25;;
16770;SDS011;8503;52.472;13.344;2022-10-29T02:43:27;12.82;;;4.13;;
16770;SDS011;8503;52.472;13.344;2022-10-29T02:44:50;13.85;;;4.70;;
16770;SDS011;8503;52.472;13.344;2022-10-29T02:46:13;19.17;;;3.70;;
16770;SDS011;8503;52.472;13.344;2022-10-29T02:47:37;13.15;;;4.00;;
16770;SDS011;8503;52.472;13.344;2022-10-29T02:49:00;14.48;;;4.75;;
16770;SDS011;8503;52.472;13.344;2022-10-29T02:50:25;13.35;;;4.70;;
16770;SDS011;8503;52.472;13.344;2022-10-29T02:51:48;12.38;;;4.28;;
16770;SDS011;8503;52.472;13.344;2022-10-29T02:53:12;13.77;;;4.40;;
16770;SDS011;8503;52.472;13.344;2022-10-29T02:54:34;20.00;;;4.30;;
16770;SDS011;8503;52.472;13.344;2022-10-29T02:55:59;10.57;;;3.63;;
16770;SDS011;8503;52.472;13.344;2022-10-29T02:57:21;12.95;;;4.35;;
16770;SDS011;8503;52.472;13.344;2022-10-29T02:58:45;12.32;;;4.60;;
16770;SDS011;8503;52.472;13.344;2022-10-29T03:00:08;12.20;;;4.32;;
16770;SDS011;8503;52.472;13.344;2022-10-29T03:01:32;13.30;;;4.78;;
16770;SDS011;8503;52.472;13.344;2022-10-29T03:02:55;12.02;;;4.63;;
16770;SDS011;8503;52.472;13.344;2022-10-29T03:04:18;11.15;;;4.13;;
16770;SDS011;8503;52.472;13.344;2022-10-29T03:05:43;11.90;;;4.10;;
16770;SDS011;8503;52.472;13.344;2022-10-29T03:07:09;14.63;;;4.78;;
16770;SDS011;8503;52.472;13.344;2022-10-29T03:08:32;14.75;;;4.95;;
16770;SDS011;8503;52.472;13.344;2022-10-29T03:09:55;17.58;;;4.38;;
16770;SDS011;8503;52.472;13.344;2022-10-29T03:11:18;10.00;;;4.55;;
16770;SDS011;8503;52.472;13.344;2022-10-29T03:12:42;14.05;;;5.28;;
16770;SDS011;8503;52.472;13.344;2022-10-29T03:14:04;13.25;;;4.65;;
16770;SDS011;8503;52.472;13.344;2022-10-29T03:15:27;9.98;;;4.40;;
16770;SDS011;8503;52.472;13.344;2022-10-29T03:16:50;9.80;;;4.88;;
16770;SDS011;8503;52.472;13.344;2022-10-29T03:18:13;13.73;;;4.70;;
16770;SDS011;8503;52.472;13.344;2022-10-29T03:19:35;12.88;;;4.68;;
16770;SDS011;8503;52.472;13.344;2022-10-29T03:21:00;12.50;;;4.78;;
16770;SDS011;8503;52.472;13.344;2022-10-29T03:22:25;13.18;;;4.80;;
16770;SDS011;8503;52.472;13.344;2022-10-29T03:23:48;16.77;;;4.63;;
16770;SDS011;8503;52.472;13.344;2022-10-29T03:25:11;10.05;;;3.90;;
16770;SDS011;8503;52.472;13.344;2022-10-29T03:26:35;13.45;;;4.25;;
16770;SDS011;8503;52.472;13.344;2022-10-29T03:27:58;18.33;;;4.68;;
16770;SDS011;8503;52.472;13.344;2022-10-29T03:29:20;9.00;;;3.90;;
16770;SDS011;8503;52.472;13.344;2022-10-29T03:30:44;11.77;;;4.28;;
16770;SDS011;8503;52.472;13.344;2022-10-29T03:32:06;12.73;;;4.70;;
16770;SDS011;8503;52.472;13.344;2022-10-29T03:33:30;11.18;;;4.55;;
16770;SDS011;8503;52.472;13.344;2022-10-29T03:34:53;14.93;;;4.72;;
16770;SDS011;8503;52.472;13.344;2022-10-29T03:36:21;10.57;;;3.90;;
16770;SDS011;8503;52.472;13.344;2022-10-29T03:37:47;10.82;;;4.47;;
16770;SDS011;8503;52.472;13.344;2022-10-29T03:39:11;17.70;;;5.25;;
16770;SDS011;8503;52.472;13.344;2022-10-29T03:40:35;13.45;;;4.68;;
16770;SDS011;8503;52.472;13.344;2022-10-29T03:41:57;10.93;;;4.40;;
16770;SDS011;8503;52.472;13.344;2022-10-29T03:43:20;16.98;;;4.80;;
16770;SDS011;8503;52.472;13.344;2022-10-29T03:44:43;15.05;;;5.38;;
16770;SDS011;8503;52.472;13.344;2022-10-29T03:46:06;12.00;;;4.70;;
16770;SDS011;8503;52.472;13.344;2022-10-29T03:47:29;13.50;;;4.30;;
16770;SDS011;8503;52.472;13.344;2022-10-29T03:48:53;14.40;;;4.35;;
16770;SDS011;8503;52.472;13.344;2022-10-29T03:50:17;12.63;;;4.90;;
16770;SDS011;8503;52.472;13.344;2022-10-29T03:51:41;10.63;;;3.85;;
16770;SDS011;8503;52.472;13.344;2022-10-29T03:53:04;9.70;;;4.35;;
16770;SDS011;8503;52.472;13.344;2022-10-29T03:54:26;14.40;;;4.45;;
16770;SDS011;8503;52.472;13.344;2022-10-29T03:55:50;13.27;;;4.32;;
16770;SDS011;8503;52.472;13.344;2022-10-29T03:57:13;13.60;;;4.60;;
16770;SDS011;8503;52.472;13.344;2022-10-29T03:58:36;11.43;;;4.50;;
16770;SDS011;8503;52.472;13.344;2022-10-29T03:59:59;11.48;;;4.53;;
16770;SDS011;8503;52.472;13.344;2022-10-29T04:01:49;8.50;;;4.25;;
16770;SDS011;8503;52.472;13.344;2022-10-29T04:03:13;15.38;;;5.80;;
16770;SDS011;8503;52.472;13.344;2022-10-29T04:04:35;11.65;;;4.20;;
16770;SDS011;8503;52.472;13.344;2022-10-29T04:05:59;12.73;;;4.68;;
16770;SDS011;8503;52.472;13.344;2022-10-29T04:07:23;11.23;;;4.70;;
16770;SDS011;8503;52.472;13.344;2022-10-29T04:08:47;14.55;;;4.38;;
16770;SDS011;8503;52.472;13.344;2022-10-29T04:10:09;13.80;;;4.97;;
16770;SDS011;8503;52.472;13.344;2022-10-29T04:11:33;15.45;;;4.60;;
16770;SDS011;8503;52.472;13.344;2022-10-29T04:12:56;13.02;;;5.20;;
16770;SDS011;8503;52.472;13.344;2022-10-29T04:14:19;13.32;;;5.15;;
16770;SDS011;8503;52.472;13.344;2022-10-29T04:15:42;13.18;;;5.05;;
16770;SDS011;8503;52.472;13.344;2022-10-29T04:17:05;10.18;;;4.38;;
16770;SDS011;8503;52.472;13.344;2022-10-29T04:18:29;14.18;;;4.72;;
16770;SDS011;8503;52.472;13.344;2022-10-29T04:19:51;8.10;;;4.72;;
16770;SDS011;8503;52.472;13.344;2022-10-29T04:21:15;15.57;;;5.28;;
16770;SDS011;8503;52.472;13.344;2022-10-29T04:23:00;9.00;;;4.25;;
16770;SDS011;8503;52.472;13.344;2022-10-29T04:24:43;11.02;;;4.50;;
16770;SDS011;8503;52.472;13.344;2022-10-29T04:26:27;11.13;;;5.03;;
16770;SDS011;8503;52.472;13.344;2022-10-29T04:28:10;11.50;;;4.38;;
16770;SDS011;8503;52.472;13.344;2022-10-29T04:29:53;12.15;;;5.00;;
16770;SDS011;8503;52.472;13.344;2022-10-29T04:31:17;11.30;;;4.68;;
16770;SDS011;8503;52.472;13.344;2022-10-29T04:32:39;11.75;;;4.53;;
16770;SDS011;8503;52.472;13.344;2022-10-29T04:34:03;12.50;;;4.47;;
16770;SDS011;8503;52.472;13.344;2022-10-29T04:35:27;13.68;;;5.05;;
16770;SDS011;8503;52.472;13.344;2022-10-29T04:36:50;11.35;;;4.95;;
16770;SDS011;8503;52.472;13.344;2022-10-29T04:38:15;11.43;;;4.85;;
16770;SDS011;8503;52.472;13.344;2022-10-29T04:39:37;12.80;;;4.28;;
16770;SDS011;8503;52.472;13.344;2022-10-29T04:41:01;11.77;;;4.50;;
16770;SDS011;8503;52.472;13.344;2022-10-29T04:42:24;11.57;;;4.28;;
16770;SDS011;8503;52.472;13.344;2022-10-29T04:43:47;21.73;;;5.43;;
16770;SDS011;8503;52.472;13.344;2022-10-29T04:45:10;17.33;;;5.03;;
16770;SDS011;8503;52.472;13.344;2022-10-29T04:46:32;9.43;;;4.38;;
16770;SDS011;8503;52.472;13.344;2022-10-29T04:47:59;9.88;;;4.53;;
16770;SDS011;8503;52.472;13.344;2022-10-29T04:49:21;11.02;;;5.57;;
16770;SDS011;8503;52.472;13.344;2022-10-29T04:50:45;14.55;;;5.05;;
16770;SDS011;8503;52.472;13.344;2022-10-29T04:52:11;14.23;;;5.10;;
16770;SDS011;8503;52.472;13.344;2022-10-29T04:53:35;16.05;;;4.70;;
16770;SDS011;8503;52.472;13.344;2022-10-29T04:54:58;13.82;;;5.05;;
16770;SDS011;8503;52.472;13.344;2022-10-29T04:56:22;11.45;;;5.05;;
16770;SDS011;8503;52.472;13.344;2022-10-29T04:57:47;15.13;;;5.90;;
16770;SDS011;8503;52.472;13.344;2022-10-29T04:59:11;17.05;;;4.90;;
16770;SDS011;8503;52.472;13.344;2022-10-29T05:00:34;14.13;;;5.25;;
16770;SDS011;8503;52.472;13.344;2022-10-29T05:01:56;11.90;;;5.30;;
16770;SDS011;8503;52.472;13.344;2022-10-29T05:03:21;8.73;;;4.63;;
16770;SDS011;8503;52.472;13.344;2022-10-29T05:04:44;11.07;;;4.90;;
16770;SDS011;8503;52.472;13.344;2022-10-29T05:06:07;9.73;;;4.57;;
16770;SDS011;8503;52.472;13.344;2022-10-29T05:07:31;13.82;;;5.05;;
16770;SDS011;8503;52.472;13.344;2022-10-29T05:08:57;12.98;;;4.72;;
16770;SDS011;8503;52.472;13.344;2022-10-29T05:10:19;10.60;;;5.05;;
16770;SDS011;8503;52.472;13.344;2022-10-29T05:11:43;21.63;;;5.15;;
16770;SDS011;8503;52.472;13.344;2022-10-29T05:13:08;17.02;;;4.90;;
16770;SDS011;8503;52.472;13.344;2022-10-29T05:14:34;17.00;;;5.75;;
16770;SDS011;8503;52.472;13.344;2022-10-29T05:15:58;8.88;;;4.85;;
16770;SDS011;8503;52.472;13.344;2022-10-29T05:17:21;10.57;;;4.30;;
16770;SDS011;8503;52.472;13.344;2022-10-29T05:18:44;11.88;;;4.72;;
16770;SDS011;8503;52.472;13.344;2022-10-29T05:20:07;14.20;;;5.75;;
16770;SDS011;8503;52.472;13.344;2022-10-29T05:21:31;15.82;;;6.10;;
16770;SDS011;8503;52.472;13.344;2022-10-29T05:22:58;12.40;;;5.45;;
16770;SDS011;8503;52.472;13.344;2022-10-29T05:24:22;19.30;;;6.18;;
16770;SDS011;8503;52.472;13.344;2022-10-29T05:25:45;15.35;;;5.63;;
16770;SDS011;8503;52.472;13.344;2022-10-29T05:27:09;12.85;;;4.80;;
16770;SDS011;8503;52.472;13.344;2022-10-29T05:28:32;11.07;;;4.97;;
16770;SDS011;8503;52.472;13.344;2022-10-29T05:29:56;13.75;;;5.90;;
16770;SDS011;8503;52.472;13.344;2022-10-29T05:31:19;12.35;;;5.25;;
16770;SDS011;8503;52.472;13.344;2022-10-29T05:32:43;13.20;;;5.18;;
16770;SDS011;8503;52.472;13.344;2022-10-29T05:34:06;21.65;;;5.25;;
16770;SDS011;8503;52.472;13.344;2022-10-29T05:35:29;11.40;;;4.45;;
16770;SDS011;8503;52.472;13.344;2022-10-29T05:36:52;14.43;;;5.72;;
16770;SDS011;8503;52.472;13.344;2022-10-29T05:38:15;12.85;;;5.05;;
16770;SDS011;8503;52.472;13.344;2022-10-29T05:39:39;18.48;;;4.80;;
16770;SDS011;8503;52.472;13.344;2022-10-29T05:41:02;16.45;;;4.82;;
16770;SDS011;8503;52.472;13.344;2022-10-29T05:42:25;13.50;;;5.00;;
16770;SDS011;8503;52.472;13.344;2022-10-29T05:43:48;9.20;;;5.47;;
16770;SDS011;8503;52.472;13.344;2022-10-29T05:45:12;19.92;;;4.95;;
16770;SDS011;8503;52.472;13.344;2022-10-29T05:46:34;13.57;;;5.32;;
16770;SDS011;8503;52.472;13.344;2022-10-29T05:47:58;11.15;;;5.43;;
16770;SDS011;8503;52.472;13.344;2022-10-29T05:49:22;14.57;;;5.15;;
16770;SDS011;8503;52.472;13.344;2022-10-29T05:50:45;13.52;;;5.18;;
16770;SDS011;8503;52.472;13.344;2022-10-29T05:52:08;14.35;;;5.28;;
16770;SDS011;8503;52.472;13.344;2022-10-29T05:53:31;14.55;;;5.88;;
16770;SDS011;8503;52.472;13.344;2022-10-29T05:54:55;14.32;;;5.38;;
16770;SDS011;8503;52.472;13.344;2022-10-29T05:56:18;20.15;;;5.72;;
16770;SDS011;8503;52.472;13.344;2022-10-29T05:57:41;16.02;;;5.50;;
16770;SDS011;8503;52.472;13.344;2022-10-29T05:59:04;14.50;;;5.53;;
16770;SDS011;8503;52.472;13.344;2022-10-29T06:00:28;11.90;;;5.13;;
16770;SDS011;8503;52.472;13.344;2022-10-29T06:01:53;14.77;;;5.35;;
16770;SDS011;8503;52.472;13.344;2022-10-29T06:03:17;21.75;;;5.78;;
16770;SDS011;8503;52.472;13.344;2022-10-29T06:04:41;15.63;;;5.50;;
16770;SDS011;8503;52.472;13.344;2022-10-29T06:06:04;9.70;;;5.07;;
16770;SDS011;8503;52.472;13.344;2022-10-29T06:07:28;17.63;;;5.65;;
16770;SDS011;8503;52.472;13.344;2022-10-29T06:08:50;16.38;;;6.13;;
16770;SDS011;8503;52.472;13.344;2022-10-29T06:10:15;14.70;;;5.10;;
16770;SDS011;8503;52.472;13.344;2022-10-29T06:11:37;18.95;;;5.55;;
16770;SDS011;8503;52.472;13.344;2022-10-29T06:13:00;12.45;;;5.82;;
16770;SDS011;8503;52.472;13.344;2022-10-29T06:14:24;13.18;;;5.53;;
16770;SDS011;8503;52.472;13.344;2022-10-29T06:15:47;12.30;;;5.40;;
16770;SDS011;8503;52.472;13.344;2022-10-29T06:17:11;14.40;;;4.85;;
16770;SDS011;8503;52.472;13.344;2022-10-29T06:18:34;20.15;;;6.05;;
16770;SDS011;8503;52.472;13.344;2022-10-29T06:19:57;15.35;;;5.70;;
16770;SDS011;8503;52.472;13.344;2022-10-29T06:21:22;18.88;;;5.65;;
16770;SDS011;8503;52.472;13.344;2022-10-29T06:22:46;15.32;;;5.32;;
16770;SDS011;8503;52.472;13.344;2022-10-29T06:24:08;16.50;;;5.25;;
16770;SDS011;8503;52.472;13.344;2022-10-29T06:25:35;10.07;;;5.07;;
16770;SDS011;8503;52.472;13.344;2022-10-29T06:26:58;15.30;;;5.45;;
16770;SDS011;8503;52.472;13.344;2022-10-29T06:28:21;12.63;;;5.38;;
16770;SDS011;8503;52.472;13.344;2022-10-29T06:29:47;17.20;;;6.03;;
16770;SDS011;8503;52.472;13.344;2022-10-29T06:31:10;19.42;;;5.40;;
16770;SDS011;8503;52.472;13.344;2022-10-29T06:32:34;27.17;;;5.68;;
16770;SDS011;8503;52.472;13.344;2022-10-29T06:33:56;8.65;;;4.13;;
16770;SDS011;8503;52.472;13.344;2022-10-29T06:35:20;11.25;;;4.60;;
16770;SDS011;8503;52.472;13.344;2022-10-29T06:36:42;14.90;;;5.03;;
16770;SDS011;8503;52.472;13.344;2022-10-29T06:38:05;12.85;;;4.35;;
16770;SDS011;8503;52.472;13.344;2022-10-29T06:39:32;10.45;;;4.93;;
16770;SDS011;8503;52.472;13.344;2022-10-29T06:40:57;22.75;;;5.38;;
16770;SDS011;8503;52.472;13.344;2022-10-29T06:42:19;11.93;;;4.47;;
16770;SDS011;8503;52.472;13.344;2022-10-29T06:43:43;11.43;;;4.38;;
16770;SDS011;8503;52.472;13.344;2022-10-29T06:45:06;10.98;;;4.20;;
16770;SDS011;8503;52.472;13.344;2022-10-29T06:46:29;11.98;;;4.75;;
16770;SDS011;8503;52.472;13.344;2022-10-29T06:47:54;13.85;;;4.25;;
16770;SDS011;8503;52.472;13.344;2022-10-29T06:49:18;12.27;;;4.68;;
16770;SDS011;8503;52.472;13.344;2022-10-29T06:50:42;15.77;;;4.10;;
16770;SDS011;8503;52.472;13.344;2022-10-29T06:52:05;14.18;;;4.68;;
16770;SDS011;8503;52.472;13.344;2022-10-29T06:53:29;12.45;;;4.63;;
16770;SDS011;8503;52.472;13.344;2022-10-29T06:54:52;14.73;;;4.22;;
16770;SDS011;8503;52.472;13.344;2022-10-29T06:56:17;17.15;;;4.78;;
16770;SDS011;8503;52.472;13.344;2022-10-29T06:57:40;9.50;;;4.38;;
16770;SDS011;8503;52.472;13.344;2022-10-29T06:59:04;11.85;;;4.05;;
16770;SDS011;8503;52.472;13.344;2022-10-29T07:00:30;13.68;;;4.60;;
16770;SDS011;8503;52.472;13.344;2022-10-29T07:01:53;13.63;;;4.78;;
16770;SDS011;8503;52.472;13.344;2022-10-29T07:03:17;9.43;;;5.18;;
16770;SDS011;8503;52.472;13.344;2022-10-29T07:04:41;13.55;;;4.57;;
16770;SDS011;8503;52.472;13.344;2022-10-29T07:06:04;9.43;;;4.53;;
16770;SDS011;8503;52.472;13.344;2022-10-29T07:07:28;13.77;;;4.57;;
16770;SDS011;8503;52.472;13.344;2022-10-29T07:08:50;15.88;;;4.03;;
16770;SDS011;8503;52.472;13.344;2022-10-29T07:10:14;12.00;;;4.35;;
16770;SDS011;8503;52.472;13.344;2022-10-29T07:11:38;13.63;;;4.70;;
16770;SDS011;8503;52.472;13.344;2022-10-29T07:13:01;11.40;;;4.45;;
16770;SDS011;8503;52.472;13.344;2022-10-29T07:14:25;10.18;;;4.47;;
16770;SDS011;8503;52.472;13.344;2022-10-29T07:15:48;13.02;;;4.30;;
16770;SDS011;8503;52.472;13.344;2022-10-29T07:17:11;10.48;;;4.50;;
16770;SDS011;8503;52.472;13.344;2022-10-29T07:18:35;12.73;;;5.18;;
16770;SDS011;8503;52.472;13.344;2022-10-29T07:19:58;8.27;;;4.15;;
16770;SDS011;8503;52.472;13.344;2022-10-29T07:21:21;9.95;;;4.07;;
16770;SDS011;8503;52.472;13.344;2022-10-29T07:22:45;14.35;;;5.47;;
16770;SDS011;8503;52.472;13.344;2022-10-29T07:24:08;5.55;;;3.70;;
16770;SDS011;8503;52.472;13.344;2022-10-29T07:25:32;10.68;;;4.22;;
16770;SDS011;8503;52.472;13.344;2022-10-29T07:26:58;12.45;;;4.97;;
16770;SDS011;8503;52.472;13.344;2022-10-29T07:28:27;7.78;;;3.90;;
16770;SDS011;8503;52.472;13.344;2022-10-29T07:29:51;12.85;;;4.18;;
16770;SDS011;8503;52.472;13.344;2022-10-29T07:31:14;9.18;;;3.85;;
16770;SDS011;8503;52.472;13.344;2022-10-29T07:32:37;11.85;;;3.45;;
16770;SDS011;8503;52.472;13.344;2022-10-29T07:34:00;10.30;;;4.05;;
16770;SDS011;8503;52.472;13.344;2022-10-29T07:35:23;14.95;;;4.00;;
16770;SDS011;8503;52.472;13.344;2022-10-29T07:36:47;12.55;;;4.25;;
16770;SDS011;8503;52.472;13.344;2022-10-29T07:38:10;9.02;;;3.70;;
16770;SDS011;8503;52.472;13.344;2022-10-29T07:39:34;17.58;;;3.85;;
16770;SDS011;8503;52.472;13.344;2022-10-29T07:40:58;9.57;;;3.63;;
16770;SDS011;8503;52.472;13.344;2022-10-29T07:42:22;13.75;;;4.50;;
16770;SDS011;8503;52.472;13.344;2022-10-29T07:43:46;11.57;;;3.60;;
16770;SDS011;8503;52.472;13.344;2022-10-29T07:45:10;10.27;;;3.70;;
16770;SDS011;8503;52.472;13.344;2022-10-29T07:46:32;12.32;;;4.47;;
16770;SDS011;8503;52.472;13.344;2022-10-29T07:47:59;11.55;;;4.00;;
16770;SDS011;8503;52.472;13.344;2022-10-29T07:49:23;18.85;;;4.00;;
16770;SDS011;8503;52.472;13.344;2022-10-29T07:50:46;14.23;;;5.10;;
16770;SDS011;8503;52.472;13.344;2022-10-29T07:52:10;8.43;;;4.35;;
16770;SDS011;8503;52.472;13.344;2022-10-29T07:53:33;13.43;;;3.45;;
16770;SDS011;8503;52.472;13.344;2022-10-29T07:54:58;8.50;;;3.90;;
16770;SDS011;8503;52.472;13.344;2022-10-29T07:56:22;11.82;;;3.75;;
16770;SDS011;8503;52.472;13.344;2022-10-29T07:57:47;11.63;;;3.88;;
16770;SDS011;8503;52.472;13.344;2022-10-29T07:59:19;17.02;;;4.38;;
16770;SDS011;8503;52.472;13.344;2022-10-29T08:00:42;8.32;;;3.92;;
16770;SDS011;8503;52.472;13.344;2022-10-29T08:02:07;11.57;;;4.25;;
16770;SDS011;8503;52.472;13.344;2022-10-29T08:03:30;9.50;;;3.45;;
16770;SDS011;8503;52.472;13.344;2022-10-29T08:04:54;16.10;;;4.35;;
16770;SDS011;8503;52.472;13.344;2022-10-29T08:06:16;13.93;;;3.67;;
16770;SDS011;8503;52.472;13.344;2022-10-29T08:07:40;10.63;;;3.55;;
16770;SDS011;8503;52.472;13.344;2022-10-29T08:09:03;10.50;;;3.72;;
16770;SDS011;8503;52.472;13.344;2022-10-29T08:10:26;10.15;;;4.18;;
16770;SDS011;8503;52.472;13.344;2022-10-29T08:11:50;10.88;;;3.40;;
16770;SDS011;8503;52.472;13.344;2022-10-29T08:13:15;10.90;;;4.10;;
16770;SDS011;8503;52.472;13.344;2022-10-29T08:14:38;11.70;;;3.45;;
16770;SDS011;8503;52.472;13.344;2022-10-29T08:16:01;9.32;;;3.83;;
16770;SDS011;8503;52.472;13.344;2022-10-29T08:17:24;8.02;;;3.90;;
16770;SDS011;8503;52.472;13.344;2022-10-29T08:18:50;10.40;;;4.10;;
16770;SDS011;8503;52.472;13.344;2022-10-29T08:20:13;9.10;;;3.88;;
16770;SDS011;8503;52.472;13.344;2022-10-29T08:21:36;13.00;;;3.50;;
16770;SDS011;8503;52.472;13.344;2022-10-29T08:22:59;8.50;;;3.97;;
16770;SDS011;8503;52.472;13.344;2022-10-29T08:24:23;15.93;;;3.72;;
16770;SDS011;8503;52.472;13.344;2022-10-29T08:25:46;9.88;;;4.45;;
16770;SDS011;8503;52.472;13.344;2022-10-29T08:27:10;9.27;;;4.03;;
16770;SDS011;8503;52.472;13.344;2022-10-29T08:28:34;8.10;;;3.58;;